createdAt,value
2019-03-22T00:02:25.786Z,69.83
2019-03-22T00:04:56.897Z,70.12
2019-03-22T00:07:27.928Z,70.03
2019-03-22T00:09:59.331Z,70.14
2019-03-22T00:12:30.468Z,70.21
2019-03-22T00:15:05.380Z,70.21
2019-03-22T00:17:36.482Z,70.76
2019-03-22T00:20:08.664Z,71.18
2019-03-22T00:22:39.776Z,71.18
2019-03-22T00:25:12.344Z,70.91
2019-03-22T00:27:43.733Z,70.85
2019-03-22T00:30:14.992Z,71.18
2019-03-22T00:32:46.322Z,71.48
2019-03-22T00:35:17.326Z,70.89
2019-03-22T00:37:48.388Z,71.38
2019-03-22T00:40:20.958Z,71.38
2019-03-22T00:42:52.008Z,71.46
2019-03-22T00:45:22.999Z,71.46
2019-03-22T00:47:55.229Z,71.52
2019-03-22T00:50:26.273Z,71.43
2019-03-22T00:52:57.291Z,71.57
2019-03-22T00:55:28.244Z,71.57
2019-03-22T00:57:59.082Z,71.68
2019-03-22T01:00:30.198Z,72.14
2019-03-22T01:03:01.393Z,71.98
2019-03-22T01:05:32.331Z,71.98
2019-03-22T01:08:03.164Z,71.85
2019-03-22T01:10:34.057Z,71.97
2019-03-22T01:13:05.152Z,71.79
2019-03-22T01:15:36.062Z,71.69
2019-03-22T01:18:07.432Z,71.73
2019-03-22T01:20:38.337Z,71.73
2019-03-22T01:23:09.250Z,71.70
2019-03-22T01:25:40.515Z,71.67
2019-03-22T01:28:12.840Z,71.53
2019-03-22T01:30:44.094Z,71.50
2019-03-22T01:33:14.988Z,72.16
2019-03-22T01:35:45.740Z,72.16
2019-03-22T01:38:16.993Z,71.84
2019-03-22T01:40:47.822Z,71.93
2019-03-22T01:43:20.030Z,71.98
2019-03-22T01:45:51.118Z,71.91
2019-03-22T01:48:21.755Z,71.82
2019-03-22T01:50:52.610Z,71.66
2019-03-22T01:53:23.374Z,71.67
2019-03-22T01:55:54.010Z,71.87
2019-03-22T01:58:25.990Z,71.92
2019-03-22T02:00:56.876Z,71.92
2019-03-22T02:03:27.741Z,72.22
2019-03-22T02:05:58.831Z,72.57
2019-03-22T02:08:29.566Z,72.57
2019-03-22T02:11:00.314Z,72.60
2019-03-22T02:13:31.220Z,72.52
2019-03-22T02:16:02.298Z,72.39
2019-03-22T02:18:34.719Z,72.04
2019-03-22T02:21:05.750Z,72.04
2019-03-22T02:23:36.522Z,72.38
2019-03-22T02:26:07.294Z,72.44
2019-03-22T02:28:39.318Z,72.41
2019-03-22T02:31:10.013Z,72.55
2019-03-22T02:33:41.188Z,72.58
2019-03-22T02:36:11.893Z,72.76
2019-03-22T02:38:42.697Z,73.29
2019-03-22T02:41:14.606Z,73.29
2019-03-22T02:43:45.415Z,72.90
2019-03-22T02:46:16.497Z,72.90
2019-03-22T02:48:47.304Z,72.92
2019-03-22T02:51:18.157Z,72.91
2019-03-22T02:53:48.888Z,72.79
2019-03-22T02:56:19.556Z,72.71
2019-03-22T02:58:50.210Z,72.61
2019-03-22T03:01:21.654Z,72.61
2019-03-22T03:03:54.114Z,72.56
2019-03-22T03:06:25.185Z,72.51
2019-03-22T03:08:56.598Z,72.52
2019-03-22T03:11:28.754Z,72.52
2019-03-22T03:13:59.506Z,72.41
2019-03-22T03:16:30.470Z,72.27
2019-03-22T03:19:01.455Z,72.29
2019-03-22T03:21:32.376Z,72.29
2019-03-22T03:24:03.246Z,72.33
2019-03-22T03:26:34.159Z,72.34
2019-03-22T03:29:04.881Z,72.43
2019-03-22T03:31:36.048Z,72.52
2019-03-22T03:34:06.788Z,72.59
2019-03-22T03:36:39.034Z,72.53
2019-03-22T03:39:10.579Z,72.41
2019-03-22T03:41:41.646Z,72.31
2019-03-22T03:44:12.423Z,72.36
2019-03-22T03:46:43.577Z,72.47
2019-03-22T03:49:14.338Z,72.46
2019-03-22T03:51:45.186Z,72.40
2019-03-22T03:54:17.481Z,72.31
2019-03-22T03:56:48.335Z,72.34
2019-03-22T03:59:19.517Z,72.33
2019-03-22T04:01:50.429Z,72.16
2019-03-22T04:04:22.260Z,72.10
2019-03-22T04:06:53.054Z,72.37
2019-03-22T04:09:25.192Z,72.46
2019-03-22T04:11:55.882Z,72.51
2019-03-22T04:14:26.727Z,72.65
2019-03-22T04:16:57.470Z,72.77
2019-03-22T04:19:28.658Z,72.97
2019-03-22T04:21:59.341Z,73.07
2019-03-22T04:24:31.015Z,73.17
2019-03-22T04:27:03.561Z,73.11
2019-03-22T04:29:34.812Z,72.97
2019-03-22T04:32:06.902Z,72.90
2019-03-22T04:34:39.186Z,72.83
2019-03-22T04:37:09.955Z,73.08
2019-03-22T04:39:41.060Z,73.31
2019-03-22T04:42:13.278Z,73.54
2019-03-22T04:44:44.135Z,73.64
2019-03-22T04:47:18.033Z,73.71
2019-03-22T04:49:49.680Z,73.67
2019-03-22T04:52:23.489Z,73.58
2019-03-22T04:54:56.863Z,73.67
2019-03-22T04:57:28.657Z,73.75
2019-03-22T05:00:01.095Z,73.56
2019-03-22T05:02:33.548Z,73.51
2019-03-22T05:05:05.435Z,73.48
2019-03-22T05:07:36.897Z,73.37
2019-03-22T05:10:13.948Z,73.33
2019-03-22T05:12:47.268Z,73.49
2019-03-22T05:15:28.535Z,73.94
2019-03-22T05:18:00.738Z,74.09
2019-03-22T05:20:33.744Z,74.16
2019-03-22T05:23:06.052Z,74.15
2019-03-22T05:25:37.980Z,73.91
2019-03-22T05:28:10.326Z,73.91
2019-03-22T05:31:09.642Z,73.97
2019-03-22T05:33:41.838Z,74.09
2019-03-22T05:36:12.686Z,74.14
2019-03-22T05:38:43.679Z,74.11
2019-03-22T05:41:15.913Z,74.04
2019-03-22T05:43:46.858Z,73.91
2019-03-22T05:46:17.709Z,73.71
2019-03-22T05:48:48.280Z,73.51
2019-03-22T05:51:20.240Z,73.38
2019-03-22T05:53:51.041Z,73.27
2019-03-22T05:56:21.635Z,73.05
2019-03-22T05:58:52.729Z,72.92
2019-03-22T06:01:23.786Z,72.79
2019-03-22T06:03:54.761Z,72.81
2019-03-22T06:06:26.660Z,72.74
2019-03-22T06:08:57.563Z,72.64
2019-03-22T06:11:28.348Z,72.48
2019-03-22T06:13:59.513Z,72.25
2019-03-22T06:16:30.274Z,72.14
2019-03-22T06:19:00.916Z,72.08
2019-03-22T06:21:38.740Z,71.91
2019-03-22T06:24:09.410Z,71.73
2019-03-22T06:26:40.213Z,71.55
2019-03-22T06:29:11.328Z,71.33
2019-03-22T06:31:42.398Z,71.33
2019-03-22T06:34:13.608Z,71.17
2019-03-22T06:36:44.655Z,71.16
2019-03-22T06:39:15.731Z,71.13
2019-03-22T06:41:46.716Z,70.67
2019-03-22T06:44:21.048Z,70.67
2019-03-22T06:46:51.844Z,70.57
2019-03-22T06:49:23.779Z,70.47
2019-03-22T06:51:54.565Z,70.36
2019-03-22T06:54:31.508Z,70.21
2019-03-22T06:56:58.410Z,70.07
2019-03-22T06:59:30.772Z,69.77
2019-03-22T07:02:01.750Z,69.12
2019-03-22T07:04:33.245Z,69.12
2019-03-22T07:07:04.338Z,69.10
2019-03-22T07:09:35.794Z,69.10
2019-03-22T07:12:06.688Z,68.09
2019-03-22T07:14:37.559Z,67.82
2019-03-22T07:17:09.726Z,67.58
2019-03-22T07:19:40.587Z,67.29
2019-03-22T07:22:11.532Z,66.89
2019-03-22T07:24:42.849Z,66.51
2019-03-22T07:27:13.708Z,66.02
2019-03-22T07:29:44.511Z,65.77
2019-03-22T07:32:15.284Z,65.34
2019-03-22T07:34:46.364Z,65.23
2019-03-22T07:37:17.708Z,64.97
2019-03-22T07:39:48.609Z,64.59
2019-03-22T07:42:20.061Z,64.28
2019-03-22T07:44:51.141Z,63.84
2019-03-22T07:47:22.155Z,63.38
2019-03-22T07:49:53.677Z,62.70
2019-03-22T07:52:25.067Z,62.34
2019-03-22T07:54:56.143Z,61.86
2019-03-22T07:57:27.159Z,61.30
2019-03-22T07:59:58.986Z,61.16
2019-03-22T08:02:31.603Z,60.75
2019-03-22T08:05:04.771Z,60.70
2019-03-22T08:07:35.641Z,60.52
2019-03-22T08:10:10.012Z,60.51
2019-03-22T08:12:41.567Z,60.45
2019-03-22T08:15:14.437Z,60.24
2019-03-22T08:17:45.617Z,59.99
2019-03-22T08:20:22.059Z,59.58
2019-03-22T08:22:58.620Z,59.30
2019-03-22T08:25:32.492Z,58.45
2019-03-22T08:28:04.494Z,58.03
2019-03-22T08:30:42.934Z,57.40
2019-03-22T08:33:09.092Z,57.29
2019-03-22T08:35:40.536Z,57.18
2019-03-22T08:38:12.426Z,57.30
2019-03-22T08:40:43.540Z,57.29
2019-03-22T08:43:14.803Z,57.41
2019-03-22T08:45:45.695Z,57.37
2019-03-22T08:48:16.540Z,57.64
2019-03-22T08:50:47.677Z,57.81
2019-03-22T08:53:18.861Z,57.62
2019-03-22T08:55:49.746Z,57.71
2019-03-22T08:58:20.980Z,58.00
2019-03-22T09:00:57.784Z,58.17
2019-03-22T09:03:25.474Z,58.29
2019-03-22T09:05:56.683Z,58.51
2019-03-22T09:08:28.306Z,58.74
2019-03-22T09:10:59.173Z,58.87
2019-03-22T09:13:30.156Z,58.97
2019-03-22T09:16:01.339Z,58.78
2019-03-22T09:18:32.207Z,58.73
2019-03-22T09:21:03.219Z,58.58
2019-03-22T09:23:34.440Z,58.77
2019-03-22T09:26:05.367Z,58.74
2019-03-22T09:28:36.259Z,58.75
2019-03-22T09:31:11.017Z,58.75
2019-03-22T09:33:40.241Z,58.75
2019-03-22T09:36:11.387Z,58.60
2019-03-22T09:38:42.315Z,58.27
2019-03-22T09:41:13.082Z,58.08
2019-03-22T09:43:44.367Z,58.48
2019-03-22T09:46:15.213Z,58.27
2019-03-22T09:48:46.040Z,58.05
2019-03-22T09:51:17.549Z,58.10
2019-03-22T09:53:49.090Z,57.94
2019-03-22T09:56:20.228Z,57.72
2019-03-22T09:58:51.781Z,57.60
2019-03-22T10:01:24.859Z,57.66
2019-03-22T10:03:56.152Z,58.02
2019-03-22T10:06:26.992Z,58.05
2019-03-22T10:08:58.150Z,57.76
2019-03-22T10:11:29.349Z,57.63
2019-03-22T10:14:00.823Z,57.60
2019-03-22T10:16:32.615Z,57.58
2019-03-22T10:19:03.863Z,57.56
2019-03-22T10:21:34.908Z,57.23
2019-03-22T10:24:06.813Z,57.23
2019-03-22T10:26:37.677Z,57.31
2019-03-22T10:29:08.418Z,57.04
2019-03-22T10:31:39.659Z,56.84
2019-03-22T10:34:10.692Z,56.88
2019-03-22T10:36:41.788Z,56.69
2019-03-22T10:39:13.051Z,56.78
2019-03-22T10:41:44.193Z,56.80
2019-03-22T10:44:15.134Z,56.38
2019-03-22T10:46:46.245Z,56.34
2019-03-22T10:49:17.294Z,56.56
2019-03-22T10:51:56.805Z,56.68
2019-03-22T10:54:20.792Z,56.24
2019-03-22T10:56:52.153Z,56.15
2019-03-22T10:59:23.525Z,55.81
2019-03-22T11:02:03.295Z,56.09
2019-03-22T11:04:28.813Z,56.53
2019-03-22T11:07:00.756Z,56.23
2019-03-22T11:09:33.002Z,55.85
2019-03-22T11:12:11.916Z,55.96
2019-03-22T11:14:36.606Z,55.46
2019-03-22T11:17:07.797Z,55.28
2019-03-22T11:19:38.937Z,55.29
2019-03-22T11:22:10.036Z,54.97
2019-03-22T11:24:40.664Z,54.81
2019-03-22T11:27:13.790Z,54.65
2019-03-22T11:29:45.038Z,54.22
2019-03-22T11:32:17.612Z,54.05
2019-03-22T11:34:48.455Z,53.55
2019-03-22T11:37:21.217Z,53.47
2019-03-22T11:39:52.107Z,52.91
2019-03-22T11:42:23.467Z,52.50
2019-03-22T11:44:56.145Z,52.37
2019-03-22T11:47:26.799Z,52.10
2019-03-22T11:49:58.055Z,51.29
2019-03-22T11:52:29.329Z,51.03
2019-03-22T11:55:00.088Z,50.96
2019-03-22T11:57:31.260Z,50.66
2019-03-22T12:00:01.931Z,49.87
2019-03-22T12:02:32.764Z,49.93
2019-03-22T12:05:07.753Z,50.10
2019-03-22T12:07:38.609Z,49.62
2019-03-22T12:10:11.589Z,49.24
2019-03-22T12:12:42.321Z,48.37
2019-03-22T12:15:13.372Z,48.73
2019-03-22T12:17:44.477Z,47.87
2019-03-22T12:20:16.429Z,47.15
2019-03-22T12:22:47.319Z,47.09
2019-03-22T12:25:21.661Z,46.48
2019-03-22T12:27:52.861Z,47.07
2019-03-22T12:30:27.958Z,46.25
2019-03-22T12:32:58.958Z,46.07
2019-03-22T12:35:33.040Z,45.50
2019-03-22T12:38:08.645Z,45.09
2019-03-22T12:40:40.593Z,44.90
2019-03-22T12:43:12.884Z,44.67
2019-03-22T12:45:45.395Z,44.54
2019-03-22T12:48:16.741Z,44.37
2019-03-22T12:50:48.356Z,44.18
2019-03-22T12:53:20.516Z,44.35
2019-03-22T12:55:51.874Z,44.17
2019-03-22T12:58:22.952Z,43.65
2019-03-22T13:00:54.252Z,43.18
2019-03-22T13:03:25.297Z,43.14
2019-03-22T13:05:56.137Z,43.12
2019-03-22T13:08:28.439Z,42.92
2019-03-22T13:10:59.366Z,42.90
2019-03-22T13:13:30.679Z,42.81
2019-03-22T13:16:01.514Z,42.93
2019-03-22T13:18:37.140Z,42.78
2019-03-22T13:21:07.676Z,42.73
2019-03-22T13:23:40.073Z,42.83
2019-03-22T13:26:11.474Z,42.95
2019-03-22T13:28:44.272Z,42.93
2019-03-22T13:31:15.498Z,42.97
2019-03-22T13:33:46.389Z,43.29
2019-03-22T13:36:18.781Z,43.29
2019-03-22T13:38:49.804Z,43.37
2019-03-22T13:41:21.250Z,43.35
2019-03-22T13:43:52.286Z,43.47
2019-03-22T13:46:27.992Z,43.76
2019-03-22T13:49:07.450Z,43.68
2019-03-22T13:51:39.612Z,43.19
2019-03-22T13:54:11.583Z,43.14
2019-03-22T13:56:42.999Z,42.90
2019-03-22T13:59:14.687Z,42.88
2019-03-22T14:01:46.289Z,43.26
2019-03-22T14:04:18.600Z,42.87
2019-03-22T14:06:50.114Z,42.64
2019-03-22T14:09:21.170Z,42.56
2019-03-22T14:11:53.515Z,42.46
2019-03-22T14:14:25.943Z,42.47
2019-03-22T14:16:57.086Z,42.49
2019-03-22T14:19:28.493Z,42.28
2019-03-22T14:22:00.736Z,42.36
2019-03-22T14:24:32.271Z,42.43
2019-03-22T14:27:03.654Z,42.26
2019-03-22T14:29:34.420Z,42.11
2019-03-22T14:32:07.831Z,42.31
2019-03-22T14:34:39.999Z,41.83
2019-03-22T14:37:11.808Z,41.98
2019-03-22T14:39:44.568Z,41.78
2019-03-22T14:42:19.522Z,41.75
2019-03-22T14:44:50.889Z,41.88
2019-03-22T14:47:22.168Z,41.79
2019-03-22T14:49:55.052Z,41.56
2019-03-22T14:52:26.431Z,41.74
2019-03-22T14:54:58.761Z,41.69
2019-03-22T14:57:30.393Z,41.78
2019-03-22T15:00:01.779Z,41.87
2019-03-22T15:02:33.280Z,42.03
2019-03-22T15:05:07.896Z,41.94
2019-03-22T15:07:39.052Z,41.54
2019-03-22T15:10:14.435Z,42.18
2019-03-22T15:12:45.865Z,42.25
2019-03-22T15:15:44.799Z,42.18
2019-03-22T15:18:39.919Z,42.11
2019-03-22T15:21:30.714Z,42.41
2019-03-22T15:24:13.141Z,42.66
2019-03-22T15:27:01.982Z,42.64
2019-03-22T15:29:51.615Z,42.73
2019-03-22T15:32:32.917Z,42.71
2019-03-22T15:38:14.300Z,42.99
2019-03-22T15:40:45.312Z,42.75
2019-03-22T15:43:16.244Z,42.71
2019-03-22T15:45:47.080Z,42.95
2019-03-22T15:48:17.833Z,43.37
2019-03-22T15:50:48.640Z,43.66
2019-03-22T15:53:22.965Z,43.98
2019-03-22T15:55:53.891Z,44.49
2019-03-22T15:58:24.727Z,45.22
2019-03-22T16:00:55.857Z,45.17
2019-03-22T16:03:26.832Z,45.22
2019-03-22T16:05:57.626Z,45.17
2019-03-22T16:08:28.814Z,45.38
2019-03-22T16:10:59.683Z,45.63
2019-03-22T16:13:30.660Z,46.21
2019-03-22T16:16:01.551Z,46.42
2019-03-22T16:18:32.485Z,46.76
2019-03-22T16:21:07.834Z,46.98
2019-03-22T16:23:38.970Z,47.47
2019-03-22T16:26:09.882Z,47.46
2019-03-22T16:29:11.650Z,47.62
2019-03-22T16:31:42.948Z,47.76
2019-03-22T16:34:14.300Z,48.08
2019-03-22T16:36:44.797Z,48.04
2019-03-22T16:39:15.327Z,48.00
2019-03-22T16:41:46.257Z,48.04
2019-03-22T16:44:18.148Z,48.27
2019-03-22T16:46:48.778Z,48.58
2019-03-22T16:49:19.974Z,49.00
2019-03-22T16:51:51.686Z,49.33
2019-03-22T16:54:23.397Z,49.63
2019-03-22T16:56:55.352Z,49.85
2019-03-22T16:59:26.381Z,50.39
2019-03-22T17:01:57.278Z,50.70
2019-03-22T17:04:27.903Z,51.37
2019-03-22T17:06:58.512Z,51.25
2019-03-22T17:09:29.199Z,51.58
2019-03-22T17:11:59.638Z,52.03
2019-03-22T17:14:30.723Z,52.40
2019-03-22T17:17:01.235Z,52.71
2019-03-22T17:19:32.594Z,53.03
2019-03-22T17:22:03.900Z,53.25
2019-03-22T17:24:34.758Z,53.54
2019-03-22T17:27:05.442Z,53.60
2019-03-22T17:29:35.977Z,53.96
2019-03-22T17:32:06.891Z,54.21
2019-03-22T17:34:38.959Z,54.54
2019-03-22T17:37:09.416Z,54.79
2019-03-22T17:39:40.486Z,55.38
2019-03-22T17:42:11.045Z,55.53
2019-03-22T17:44:41.602Z,56.05
2019-03-22T17:47:12.878Z,56.19
2019-03-22T17:49:48.370Z,56.49
2019-03-22T17:52:17.611Z,56.93
2019-03-22T17:54:48.282Z,57.21
2019-03-22T17:57:20.198Z,57.65
2019-03-22T17:59:51.958Z,57.74
2019-03-22T18:02:22.494Z,57.84
2019-03-22T18:04:52.863Z,58.32
2019-03-22T18:07:23.652Z,58.63
2019-03-22T18:09:54.034Z,58.96
2019-03-22T18:12:24.429Z,59.10
2019-03-22T18:14:55.169Z,59.48
2019-03-22T18:17:26.673Z,59.39
2019-03-22T18:19:57.181Z,59.91
2019-03-22T18:22:28.004Z,59.71
2019-03-22T18:24:59.645Z,60.24
2019-03-22T18:27:30.226Z,60.40
2019-03-22T18:30:02.291Z,60.59
2019-03-22T18:32:33.429Z,60.41
2019-03-22T18:35:04.868Z,60.40
2019-03-22T18:37:35.428Z,60.45
2019-03-22T18:40:09.049Z,60.81
2019-03-22T18:42:39.939Z,60.80
2019-03-22T18:45:11.029Z,60.71
2019-03-22T18:47:41.559Z,60.78
2019-03-22T18:50:12.436Z,61.23
2019-03-22T18:52:43.451Z,61.34
2019-03-22T18:55:14.757Z,61.31
2019-03-22T18:57:50.940Z,61.68
2019-03-22T19:00:25.120Z,61.68
2019-03-22T19:02:59.657Z,62.02
2019-03-22T19:05:47.623Z,62.26
2019-03-22T19:08:17.280Z,62.45
2019-03-22T19:10:51.607Z,62.57
2019-03-22T19:13:30.368Z,62.63
2019-03-22T19:15:54.694Z,62.69
2019-03-22T19:18:28.832Z,63.03
2019-03-22T19:20:59.335Z,63.05
2019-03-22T19:23:33.988Z,63.37
2019-03-22T19:26:05.777Z,63.33
2019-03-22T19:28:36.509Z,63.12
2019-03-22T19:31:09.088Z,62.90
2019-03-22T19:33:46.019Z,63.30
2019-03-22T19:36:17.651Z,63.12
2019-03-22T19:38:48.843Z,63.33
2019-03-22T19:41:23.497Z,63.85
2019-03-22T19:43:54.614Z,64.05
2019-03-22T19:46:26.797Z,64.14
2019-03-22T19:48:57.934Z,64.17
2019-03-22T19:51:29.671Z,64.31
2019-03-22T19:54:00.161Z,64.71
2019-03-22T19:56:31.176Z,64.83
2019-03-22T19:59:03.108Z,64.68
2019-03-22T20:01:35.381Z,65.11
2019-03-22T20:04:06.386Z,65.51
2019-03-22T20:06:37.619Z,65.44
2019-03-22T20:09:10.272Z,65.69
2019-03-22T20:11:41.628Z,65.75
2019-03-22T20:14:12.262Z,65.76
2019-03-22T20:16:43.386Z,65.90
2019-03-22T20:19:14.147Z,66.12
2019-03-22T20:21:45.112Z,66.06
2019-03-22T20:24:20.031Z,66.21
2019-03-22T20:26:52.676Z,66.31
2019-03-22T20:29:25.452Z,66.34
2019-03-22T20:31:57.490Z,66.50
2019-03-22T20:34:28.301Z,66.49
2019-03-22T20:37:00.523Z,66.38
2019-03-22T20:39:31.850Z,66.23
2019-03-22T20:42:02.723Z,66.39
2019-03-22T20:44:34.630Z,66.33
2019-03-22T20:47:06.976Z,66.64
2019-03-22T20:49:37.396Z,66.53
2019-03-22T20:52:07.868Z,66.75
2019-03-22T20:54:38.936Z,66.91
2019-03-22T20:57:09.562Z,67.15
2019-03-22T20:59:40.220Z,67.21
2019-03-22T21:02:11.079Z,67.49
2019-03-22T21:04:41.504Z,67.67
2019-03-22T21:07:11.976Z,67.77
2019-03-22T21:09:43.998Z,67.89
2019-03-22T21:12:14.414Z,67.92
2019-03-22T21:14:44.778Z,68.12
2019-03-22T21:17:16.358Z,68.30
2019-03-22T21:19:46.826Z,68.44
2019-03-22T21:22:17.276Z,68.57
2019-03-22T21:24:48.280Z,68.63
2019-03-22T21:27:18.816Z,68.75
2019-03-22T21:29:49.245Z,68.83
2019-03-22T21:32:19.583Z,69.07
2019-03-22T21:34:50.218Z,69.11
2019-03-22T21:37:20.648Z,69.34
2019-03-22T21:39:51.100Z,69.60
2019-03-22T21:42:22.780Z,69.70
2019-03-22T21:44:53.259Z,69.86
2019-03-22T21:47:23.675Z,70.04
2019-03-22T21:49:54.422Z,70.17
2019-03-22T21:52:24.851Z,70.52
2019-03-22T21:54:55.255Z,70.65
2019-03-22T21:57:26.029Z,71.52
2019-03-22T21:59:57.816Z,71.72
2019-03-22T22:02:28.155Z,71.89
2019-03-22T22:04:58.878Z,71.80
2019-03-22T22:07:29.195Z,71.56
2019-03-22T22:09:59.747Z,71.57
2019-03-22T22:12:30.546Z,71.32
2019-03-22T22:15:00.988Z,71.06
2019-03-22T22:17:31.353Z,71.10
2019-03-22T22:20:01.985Z,70.92
2019-03-22T22:22:32.678Z,70.89
2019-03-22T22:25:04.247Z,70.88
2019-03-22T22:27:34.799Z,70.84
2019-03-22T22:30:05.941Z,70.60
2019-03-22T22:32:36.390Z,70.71
2019-03-22T22:35:08.178Z,70.86
2019-03-22T22:37:38.681Z,70.95
2019-03-22T22:40:10.720Z,71.11
2019-03-22T22:42:41.202Z,71.02
2019-03-22T22:45:13.658Z,71.09
2019-03-22T22:47:44.397Z,71.12
2019-03-22T22:50:15.067Z,71.10
2019-03-22T22:52:45.562Z,71.04
2019-03-22T22:55:16.463Z,71.05
2019-03-22T22:57:46.934Z,71.44
2019-03-22T23:00:18.641Z,71.40
2019-03-22T23:02:49.329Z,71.46
2019-03-22T23:05:21.872Z,71.79
2019-03-22T23:07:52.782Z,71.67
2019-03-22T23:10:25.180Z,71.83
2019-03-22T23:12:55.694Z,71.90
2019-03-22T23:15:26.519Z,72.06
2019-03-22T23:17:57.062Z,72.00
2019-03-22T23:20:27.720Z,72.08
2019-03-22T23:22:58.595Z,72.06
2019-03-22T23:25:29.356Z,72.30
2019-03-22T23:27:59.776Z,72.31
2019-03-22T23:30:30.191Z,72.22
2019-03-22T23:33:00.810Z,72.20
2019-03-22T23:35:31.276Z,72.25
2019-03-22T23:38:01.993Z,72.31
2019-03-22T23:40:33.859Z,72.24
2019-03-22T23:43:05.658Z,72.31
2019-03-22T23:45:36.243Z,72.36
2019-03-22T23:48:07.075Z,72.50
2019-03-22T23:50:37.584Z,72.45
2019-03-22T23:53:08.071Z,72.51
2019-03-22T23:55:38.815Z,72.63
2019-03-22T23:58:09.437Z,72.63
